createdAt,value
2018-07-08T00:02:22.757Z,101087.91
2018-07-08T00:04:53.591Z,101096.17
2018-07-08T00:07:24.361Z,101094.07
2018-07-08T00:09:55.191Z,101090.81
2018-07-08T00:12:25.935Z,101088.16
2018-07-08T00:14:56.719Z,101086.89
2018-07-08T00:17:27.418Z,101093.71
2018-07-08T00:19:58.204Z,101087.89
2018-07-08T00:22:28.976Z,101088.36
2018-07-08T00:24:59.764Z,101084.73
2018-07-08T00:27:30.569Z,101089.84
2018-07-08T00:30:01.295Z,101085.88
2018-07-08T00:32:31.999Z,101087.00
2018-07-08T00:35:02.708Z,101090.30
2018-07-08T00:37:33.432Z,101084.20
2018-07-08T00:40:04.217Z,101088.61
2018-07-08T00:42:34.952Z,101090.97
2018-07-08T00:45:05.761Z,101093.63
2018-07-08T00:47:36.449Z,101100.28
2018-07-08T00:50:07.177Z,101096.27
2018-07-08T00:52:37.901Z,101095.31
2018-07-08T00:55:09.011Z,101100.73
2018-07-08T00:57:39.800Z,101100.28
2018-07-08T01:00:28.683Z,101101.48
2018-07-08T01:02:59.740Z,101104.09
2018-07-08T01:05:30.927Z,101111.61
2018-07-08T01:08:02.312Z,101106.28
2018-07-08T01:10:33.072Z,101114.42
2018-07-08T01:13:03.919Z,101108.42
2018-07-08T01:15:34.580Z,101109.44
2018-07-08T01:18:05.649Z,101117.20
2018-07-08T01:20:36.400Z,101114.95
2018-07-08T01:23:07.127Z,101111.52
2018-07-08T01:25:54.765Z,101123.81
2018-07-08T01:28:25.427Z,101116.08
2018-07-08T01:30:56.149Z,101123.28
2018-07-08T01:33:26.819Z,101128.75
2018-07-08T01:35:57.570Z,101126.73
2018-07-08T01:38:59.010Z,101126.88
2018-07-08T01:41:29.704Z,101126.98
2018-07-08T01:44:00.390Z,101129.88
2018-07-08T01:46:31.073Z,101129.55
2018-07-08T01:49:01.781Z,101135.20
2018-07-08T01:51:32.482Z,101133.24
2018-07-08T01:54:03.273Z,101132.52
2018-07-08T01:56:34.068Z,101130.16
2018-07-08T01:59:05.117Z,101131.17
2018-07-08T02:01:35.857Z,101129.84
2018-07-08T02:04:06.672Z,101126.95
2018-07-08T02:06:37.383Z,101127.91
2018-07-08T02:09:14.696Z,101125.03
2018-07-08T02:11:45.688Z,101126.36
2018-07-08T02:14:16.481Z,101126.04
2018-07-08T02:16:47.226Z,101131.90
2018-07-08T02:19:17.947Z,101131.17
2018-07-08T02:21:48.683Z,101132.59
2018-07-08T02:24:19.512Z,101139.00
2018-07-08T02:26:50.509Z,101139.55
2018-07-08T02:29:21.275Z,101141.39
2018-07-08T02:31:52.127Z,101145.45
2018-07-08T02:34:22.774Z,101151.77
2018-07-08T02:36:53.773Z,101148.42
2018-07-08T02:39:25.171Z,101151.22
2018-07-08T02:41:56.456Z,101154.83
2018-07-08T02:44:27.325Z,101159.41
2018-07-08T02:46:58.037Z,101159.58
2018-07-08T02:49:28.839Z,101164.10
2018-07-08T02:51:59.588Z,101169.45
2018-07-08T02:54:30.305Z,101170.41
2018-07-08T02:57:01.021Z,101169.30
2018-07-08T02:59:31.700Z,101168.98
2018-07-08T03:02:02.375Z,101163.89
2018-07-08T03:04:33.112Z,101166.63
2018-07-08T03:07:03.880Z,101161.06
2018-07-08T03:09:34.560Z,101169.42
2018-07-08T03:12:05.354Z,101165.58
2018-07-08T03:14:36.041Z,101161.59
2018-07-08T03:17:06.770Z,101157.79
2018-07-08T03:22:38.776Z,101148.18
2018-07-08T03:25:09.459Z,101146.20
2018-07-08T03:27:40.140Z,101149.40
2018-07-08T03:30:10.853Z,101153.52
2018-07-08T03:32:41.539Z,101155.70
2018-07-08T03:35:12.331Z,101151.27
2018-07-08T03:37:43.011Z,101154.55
2018-07-08T03:40:13.715Z,101160.77
2018-07-08T03:42:44.391Z,101161.69
2018-07-08T03:45:15.036Z,101167.86
2018-07-08T03:47:45.770Z,101171.29
2018-07-08T03:50:16.440Z,101164.20
2018-07-08T03:52:47.135Z,101173.03
2018-07-08T03:55:17.855Z,101164.07
2018-07-08T03:57:48.575Z,101164.07
2018-07-08T04:00:19.206Z,101167.64
2018-07-08T04:02:49.931Z,101161.01
2018-07-08T04:05:20.652Z,101162.34
2018-07-08T04:07:51.395Z,101158.77
2018-07-08T04:10:22.067Z,101159.22
2018-07-08T04:12:52.750Z,101166.18
2018-07-08T04:15:23.462Z,101168.66
2018-07-08T04:17:58.947Z,101172.92
2018-07-08T04:20:29.614Z,101176.36
2018-07-08T04:23:00.532Z,101169.18
2018-07-08T04:25:31.491Z,101173.41
2018-07-08T04:28:02.321Z,101178.58
2018-07-08T04:30:33.013Z,101172.18
2018-07-08T04:33:03.732Z,101174.61
2018-07-08T04:35:34.419Z,101174.53
2018-07-08T04:38:05.181Z,101176.27
2018-07-08T04:40:35.906Z,101182.58
2018-07-08T04:43:06.709Z,101185.38
2018-07-08T04:45:37.426Z,101185.33
2018-07-08T04:48:08.134Z,101184.00
2018-07-08T04:50:38.812Z,101185.56
2018-07-08T04:53:09.509Z,101190.48
2018-07-08T04:55:40.136Z,101196.20
2018-07-08T04:58:10.815Z,101201.52
2018-07-08T05:00:41.454Z,101202.86
2018-07-08T05:03:12.184Z,101203.95
2018-07-08T05:05:42.511Z,101206.80
2018-07-08T05:08:13.373Z,101209.45
2018-07-08T05:10:44.055Z,101207.66
2018-07-08T05:13:14.747Z,101210.00
2018-07-08T05:15:45.399Z,101210.67
2018-07-08T05:18:16.038Z,101213.16
2018-07-08T05:20:46.756Z,101209.34
2018-07-08T05:23:17.432Z,101211.82
2018-07-08T05:25:48.125Z,101212.31
2018-07-08T05:28:18.768Z,101218.08
2018-07-08T05:30:49.485Z,101215.65
2018-07-08T05:33:20.221Z,101212.66
2018-07-08T05:35:50.906Z,101215.08
2018-07-08T05:38:21.616Z,101217.69
2018-07-08T05:40:52.283Z,101218.81
2018-07-08T05:43:23.004Z,101218.75
2018-07-08T05:45:53.640Z,101222.34
2018-07-08T05:48:24.333Z,101224.20
2018-07-08T05:50:55.046Z,101222.84
2018-07-08T05:53:25.726Z,101225.11
2018-07-08T05:55:56.469Z,101223.04
2018-07-08T05:58:27.169Z,101227.55
2018-07-08T06:00:57.885Z,101233.28
2018-07-08T06:03:28.580Z,101231.81
2018-07-08T06:05:59.367Z,101232.23
2018-07-08T06:08:30.181Z,101228.91
2018-07-08T06:11:00.867Z,101228.00
2018-07-08T06:13:31.565Z,101225.28
2018-07-08T06:16:05.145Z,101215.94
2018-07-08T06:18:35.828Z,101216.24
2018-07-08T06:21:06.649Z,101219.08
2018-07-08T06:23:37.336Z,101216.25
2018-07-08T06:26:08.920Z,101221.27
2018-07-08T06:28:39.648Z,101220.06
2018-07-08T06:31:10.660Z,101222.33
2018-07-08T06:33:41.315Z,101222.55
2018-07-08T06:36:12.051Z,101223.70
2018-07-08T06:38:42.748Z,101221.27
2018-07-08T06:41:13.506Z,101223.72
2018-07-08T06:43:44.233Z,101220.98
2018-07-08T06:46:14.977Z,101221.45
2018-07-08T06:48:45.641Z,101220.31
2018-07-08T06:51:16.419Z,101219.87
2018-07-08T06:53:47.283Z,101210.71
2018-07-08T06:56:17.993Z,101212.61
2018-07-08T06:58:48.703Z,101214.22
2018-07-08T07:01:19.365Z,101222.93
2018-07-08T07:03:56.812Z,101225.77
2018-07-08T07:06:27.524Z,101224.38
2018-07-08T07:08:58.184Z,101222.35
2018-07-08T07:11:28.864Z,101228.66
2018-07-08T07:13:59.543Z,101227.66
2018-07-08T07:16:30.223Z,101218.87
2018-07-08T07:19:00.902Z,101223.05
2018-07-08T07:21:31.521Z,101220.06
2018-07-08T07:24:02.190Z,101222.14
2018-07-08T07:26:32.875Z,101215.22
2018-07-08T07:29:03.543Z,101217.22
2018-07-08T07:31:34.269Z,101213.41
2018-07-08T07:34:04.992Z,101216.41
2018-07-08T07:36:35.842Z,101225.56
2018-07-08T07:39:07.517Z,101226.48
2018-07-08T07:41:38.196Z,101231.42
2018-07-08T07:44:08.880Z,101233.83
2018-07-08T07:46:39.518Z,101232.76
2018-07-08T07:49:10.208Z,101230.88
2018-07-08T07:51:40.907Z,101223.95
2018-07-08T07:54:11.615Z,101228.29
2018-07-08T07:56:42.324Z,101227.36
2018-07-08T07:59:12.961Z,101231.31
2018-07-08T08:01:43.667Z,101231.45
2018-07-08T08:04:14.386Z,101228.68
2018-07-08T08:06:45.073Z,101230.42
2018-07-08T08:09:15.816Z,101227.47
2018-07-08T08:11:46.487Z,101230.11
2018-07-08T08:14:17.202Z,101227.15
2018-07-08T08:16:47.931Z,101222.07
2018-07-08T08:19:18.623Z,101222.60
2018-07-08T08:21:49.319Z,101217.48
2018-07-08T08:24:19.985Z,101221.28
2018-07-08T08:26:50.805Z,101221.77
2018-07-08T08:29:21.404Z,101219.11
2018-07-08T08:31:52.088Z,101219.34
2018-07-08T08:35:09.503Z,101214.30
2018-07-08T08:37:46.326Z,101216.69
2018-07-08T08:40:17.925Z,101219.33
2018-07-08T08:42:48.692Z,101220.09
2018-07-08T08:45:20.216Z,101219.80
2018-07-08T08:47:50.946Z,101216.55
2018-07-08T08:50:21.653Z,101217.38
2018-07-08T08:52:52.414Z,101225.88
2018-07-08T08:55:23.082Z,101224.77
2018-07-08T08:57:53.791Z,101219.94
2018-07-08T09:00:24.456Z,101213.47
2018-07-08T09:02:55.159Z,101216.02
2018-07-08T09:05:25.802Z,101229.04
2018-07-08T09:07:56.465Z,101221.72
2018-07-08T09:10:27.187Z,101224.88
2018-07-08T09:12:57.841Z,101224.66
2018-07-08T09:15:28.500Z,101226.63
2018-07-08T09:17:59.242Z,101231.54
2018-07-08T09:20:29.931Z,101224.09
2018-07-08T09:23:00.633Z,101236.84
2018-07-08T09:25:31.253Z,101236.12
2018-07-08T09:28:01.897Z,101232.41
2018-07-08T09:30:32.622Z,101237.74
2018-07-08T09:33:03.265Z,101246.61
2018-07-08T09:35:33.958Z,101233.53
2018-07-08T09:38:04.634Z,101239.35
2018-07-08T09:40:35.333Z,101238.80
2018-07-08T09:43:06.064Z,101239.66
2018-07-08T09:45:36.741Z,101236.27
2018-07-08T09:48:07.429Z,101236.06
2018-07-08T09:50:38.143Z,101235.16
2018-07-08T09:53:08.848Z,101227.12
2018-07-08T09:55:39.509Z,101226.46
2018-07-08T09:58:10.154Z,101230.13
2018-07-08T10:00:40.816Z,101225.50
2018-07-08T10:03:11.501Z,101220.81
2018-07-08T10:05:42.172Z,101225.03
2018-07-08T10:08:12.820Z,101216.78
2018-07-08T10:10:43.523Z,101213.52
2018-07-08T10:13:14.151Z,101211.81
2018-07-08T10:15:44.861Z,101215.21
2018-07-08T10:18:15.478Z,101217.08
2018-07-08T10:20:46.545Z,101205.67
2018-07-08T10:23:17.248Z,101214.36
2018-07-08T10:25:47.949Z,101207.95
2018-07-08T10:28:19.810Z,101210.86
2018-07-08T10:30:50.809Z,101205.18
2018-07-08T10:33:21.578Z,101205.86
2018-07-08T10:35:58.995Z,101206.04
2018-07-08T10:38:29.708Z,101208.25
2018-07-08T10:41:00.385Z,101208.94
2018-07-08T10:43:31.079Z,101195.91
2018-07-08T10:46:01.724Z,101196.91
2018-07-08T10:48:32.402Z,101203.84
2018-07-08T10:51:03.078Z,101199.30
2018-07-08T10:53:33.760Z,101200.80
2018-07-08T10:56:04.473Z,101197.72
2018-07-08T10:58:35.177Z,101195.27
2018-07-08T11:01:05.883Z,101193.41
2018-07-08T11:03:36.647Z,101193.91
2018-07-08T11:06:07.424Z,101192.74
2018-07-08T11:08:38.132Z,101194.59
2018-07-08T11:11:08.832Z,101186.45
2018-07-08T11:13:39.575Z,101185.60
2018-07-08T11:16:10.298Z,101191.73
2018-07-08T11:18:41.097Z,101192.01
2018-07-08T11:21:11.832Z,101186.22
2018-07-08T11:23:42.560Z,101187.67
2018-07-08T11:26:13.263Z,101179.41
2018-07-08T11:28:43.611Z,101172.41
2018-07-08T11:31:14.280Z,101170.19
2018-07-08T11:33:44.911Z,101170.75
2018-07-08T11:36:15.613Z,101162.13
2018-07-08T11:38:46.298Z,101158.55
2018-07-08T11:41:17.087Z,101161.58
2018-07-08T11:43:47.879Z,101156.36
2018-07-08T11:46:18.590Z,101156.20
2018-07-08T11:48:49.293Z,101155.55
2018-07-08T11:51:19.908Z,101154.28
2018-07-08T11:53:50.656Z,101152.59
2018-07-08T11:56:21.295Z,101147.14
2018-07-08T11:58:51.988Z,101150.47
2018-07-08T12:01:22.775Z,101151.80
2018-07-08T12:03:53.509Z,101139.02
2018-07-08T12:06:24.295Z,101127.45
2018-07-08T12:08:54.978Z,101131.30
2018-07-08T12:11:25.744Z,101130.16
2018-07-08T12:13:56.491Z,101133.38
2018-07-08T12:16:27.242Z,101136.64
2018-07-08T12:18:57.900Z,101131.78
2018-07-08T12:21:28.643Z,101132.06
2018-07-08T12:23:59.282Z,101125.73
2018-07-08T12:26:30.050Z,101130.14
2018-07-08T12:29:00.677Z,101124.28
2018-07-08T12:31:31.356Z,101120.90
2018-07-08T12:34:02.070Z,101120.77
2018-07-08T12:36:32.732Z,101124.27
2018-07-08T12:39:03.771Z,101123.17
2018-07-08T12:41:34.392Z,101110.47
2018-07-08T12:44:05.251Z,101111.83
2018-07-08T12:46:35.865Z,101102.79
2018-07-08T12:49:06.297Z,101115.29
2018-07-08T12:51:36.959Z,101116.45
2018-07-08T12:54:07.665Z,101110.41
2018-07-08T12:56:38.334Z,101097.59
2018-07-08T12:59:09.027Z,101099.42
2018-07-08T13:01:39.692Z,101104.52
2018-07-08T13:04:10.446Z,101111.62
2018-07-08T13:06:41.206Z,101108.55
2018-07-08T13:09:11.841Z,101106.77
2018-07-08T13:11:42.632Z,101103.80
2018-07-08T13:14:13.340Z,101107.59
2018-07-08T13:16:44.029Z,101092.95
2018-07-08T13:19:14.690Z,101096.05
2018-07-08T13:21:45.359Z,101098.44
2018-07-08T13:24:16.038Z,101099.17
2018-07-08T13:26:46.705Z,101094.47
2018-07-08T13:29:17.385Z,101098.63
2018-07-08T13:31:48.081Z,101095.50
2018-07-08T13:34:18.771Z,101067.42
2018-07-08T13:36:49.473Z,101093.24
2018-07-08T13:39:20.196Z,101093.56
2018-07-08T13:41:50.832Z,101097.70
2018-07-08T13:44:21.497Z,101095.89
2018-07-08T13:46:52.263Z,101089.17
2018-07-08T13:49:26.365Z,101090.61
2018-07-08T13:51:57.024Z,101081.72
2018-07-08T13:54:27.719Z,101082.70
2018-07-08T13:56:58.423Z,101078.28
2018-07-08T13:59:29.186Z,101083.93
2018-07-08T14:01:59.900Z,101084.32
2018-07-08T14:04:30.612Z,101083.52
2018-07-08T14:07:01.295Z,101079.77
2018-07-08T14:09:32.440Z,101081.48
2018-07-08T14:12:03.191Z,101077.46
2018-07-08T14:14:34.015Z,101077.88
2018-07-08T14:17:04.713Z,101079.04
2018-07-08T14:19:38.357Z,101072.55
2018-07-08T14:22:09.022Z,101079.86
2018-07-08T14:24:39.708Z,101073.45
2018-07-08T14:27:10.372Z,101070.25
2018-07-08T14:29:41.081Z,101068.71
2018-07-08T14:32:11.778Z,101066.09
2018-07-08T14:34:42.477Z,101057.30
2018-07-08T14:37:13.254Z,101061.02
2018-07-08T14:39:43.987Z,101053.41
2018-07-08T14:42:14.715Z,101059.44
2018-07-08T14:44:45.574Z,101055.55
2018-07-08T14:47:16.140Z,101061.50
2018-07-08T14:49:46.831Z,101062.03
2018-07-08T14:52:17.540Z,101057.32
2018-07-08T14:54:48.266Z,101050.95
2018-07-08T14:57:18.912Z,101059.13
2018-07-08T14:59:49.590Z,101053.16
2018-07-08T15:02:20.323Z,101055.41
2018-07-08T15:04:51.075Z,101040.63
2018-07-08T15:07:21.784Z,101041.91
2018-07-08T15:09:52.503Z,101047.25
2018-07-08T15:12:23.319Z,101039.02
2018-07-08T15:14:54.088Z,101043.70
2018-07-08T15:17:24.853Z,101037.92
2018-07-08T15:19:55.587Z,101037.91
2018-07-08T15:22:26.249Z,101042.52
2018-07-08T15:24:56.943Z,101035.25
2018-07-08T15:27:27.570Z,101034.72
2018-07-08T15:29:57.909Z,101030.63
2018-07-08T15:32:28.428Z,101031.94
2018-07-08T15:34:59.195Z,101030.98
2018-07-08T15:37:29.934Z,101029.78
2018-07-08T15:40:00.640Z,101030.73
2018-07-08T15:42:31.420Z,101031.98
2018-07-08T15:45:02.312Z,101029.03
2018-07-08T15:47:33.164Z,101025.00
2018-07-08T15:50:03.948Z,101022.34
2018-07-08T15:52:34.721Z,101026.85
2018-07-08T15:55:05.827Z,101023.78
2018-07-08T15:57:36.673Z,101026.60
2018-07-08T16:00:07.402Z,101021.37
2018-07-08T16:02:38.061Z,101019.05
2018-07-08T16:05:08.746Z,101024.16
2018-07-08T16:07:39.449Z,101017.55
2018-07-08T16:10:10.192Z,101018.20
2018-07-08T16:12:40.872Z,101007.06
2018-07-08T16:15:11.556Z,101007.55
2018-07-08T16:17:42.316Z,101007.45
2018-07-08T16:20:12.991Z,101003.55
2018-07-08T16:22:43.774Z,101005.44
2018-07-08T16:25:14.474Z,101007.48
2018-07-08T16:27:45.148Z,101015.95
2018-07-08T16:30:15.844Z,101011.39
2018-07-08T16:32:46.652Z,101014.77
2018-07-08T16:35:17.381Z,101004.61
2018-07-08T16:37:48.140Z,101007.97
2018-07-08T16:40:18.841Z,100993.73
2018-07-08T16:42:49.593Z,101003.16
2018-07-08T16:45:20.323Z,100997.55
2018-07-08T16:47:51.020Z,101001.12
2018-07-08T16:50:21.786Z,100997.88
2018-07-08T16:52:52.167Z,100999.76
2018-07-08T16:55:22.819Z,100999.89
2018-07-08T16:57:53.498Z,100996.50
2018-07-08T17:00:24.173Z,101003.21
2018-07-08T17:02:54.908Z,100996.39
2018-07-08T17:05:25.575Z,101001.11
2018-07-08T17:07:56.367Z,100995.27
2018-07-08T17:10:27.148Z,100998.45
2018-07-08T17:12:58.145Z,100990.48
2018-07-08T17:15:29.207Z,100996.39
2018-07-08T17:17:59.932Z,100992.81
2018-07-08T17:20:30.685Z,100987.70
2018-07-08T17:23:01.477Z,100994.44
2018-07-08T17:25:32.346Z,100995.23
2018-07-08T17:28:09.027Z,100993.52
2018-07-08T17:30:39.453Z,100986.19
2018-07-08T17:33:10.031Z,100992.59
2018-07-08T17:35:40.740Z,100988.83
2018-07-08T17:38:11.488Z,100994.88
2018-07-08T17:40:42.160Z,100995.87
2018-07-08T17:43:12.899Z,100986.76
2018-07-08T17:45:43.695Z,100983.28
2018-07-08T17:48:14.416Z,100984.72
2018-07-08T17:50:45.164Z,100985.25
2018-07-08T17:53:15.911Z,100981.80
2018-07-08T17:55:46.635Z,100991.34
2018-07-08T17:58:17.381Z,100986.03
2018-07-08T18:00:48.112Z,100987.81
2018-07-08T18:03:19.303Z,100986.53
2018-07-08T18:05:50.004Z,100990.91
2018-07-08T18:08:20.772Z,100984.12
2018-07-08T18:11:05.998Z,100990.69
2018-07-08T18:13:36.748Z,100997.33
2018-07-08T18:16:07.669Z,100993.58
2018-07-08T18:18:38.532Z,100995.15
2018-07-08T18:21:09.444Z,100997.28
2018-07-08T18:23:40.314Z,100988.36
2018-07-08T18:26:11.150Z,100988.64
2018-07-08T18:28:41.884Z,100985.00
2018-07-08T18:31:12.696Z,100988.80
2018-07-08T18:33:43.467Z,100985.90
2018-07-08T18:36:14.245Z,100991.59
2018-07-08T18:38:45.125Z,100989.70
2018-07-08T18:41:15.939Z,100994.55
2018-07-08T18:43:46.784Z,100984.77
2018-07-08T18:46:17.735Z,100985.09
2018-07-08T18:48:48.604Z,100979.81
2018-07-08T18:51:19.384Z,100981.92
2018-07-08T18:53:50.278Z,100980.78
2018-07-08T18:56:21.163Z,100983.91
2018-07-08T18:58:52.225Z,100988.89
2018-07-08T19:01:22.920Z,100987.06
2018-07-08T19:03:54.135Z,100986.31
2018-07-08T19:06:24.995Z,100987.59
2018-07-08T19:08:55.733Z,100987.23
2018-07-08T19:11:26.523Z,100985.44
2018-07-08T19:13:57.256Z,100991.11
2018-07-08T19:16:28.095Z,100985.74
2018-07-08T19:18:58.843Z,100989.90
2018-07-08T19:21:29.498Z,100991.39
2018-07-08T19:24:00.264Z,100994.92
2018-07-08T19:26:30.800Z,100994.76
2018-07-08T19:29:01.784Z,100994.62
2018-07-08T19:31:32.665Z,100995.19
2018-07-08T19:34:03.467Z,101002.11
2018-07-08T19:36:34.202Z,101006.98
2018-07-08T19:39:06.319Z,100996.66
2018-07-08T19:41:39.150Z,101002.34
2018-07-08T19:44:09.890Z,101005.37
2018-07-08T19:46:40.692Z,101005.44
2018-07-08T19:49:11.338Z,101006.09
2018-07-08T19:51:42.494Z,101003.73
2018-07-08T19:54:13.221Z,101012.84
2018-07-08T19:57:46.879Z,101011.42
2018-07-08T20:00:17.574Z,101017.00
2018-07-08T20:02:48.308Z,101020.23
2018-07-08T20:05:19.048Z,101022.94
2018-07-08T20:07:49.851Z,101027.50
2018-07-08T20:10:20.557Z,101022.52
2018-07-08T20:12:51.253Z,101024.39
2018-07-08T20:18:54.445Z,101030.94
2018-07-08T20:21:25.417Z,101034.16
2018-07-08T20:23:56.154Z,101035.50
2018-07-08T20:26:26.542Z,101037.85
2018-07-08T20:28:57.252Z,101043.98
2018-07-08T20:31:27.974Z,101042.66
2018-07-08T20:33:58.657Z,101040.93
2018-07-08T20:36:29.836Z,101045.48
2018-07-08T20:39:00.655Z,101044.13
2018-07-08T20:41:31.393Z,101040.37
2018-07-08T20:44:02.157Z,101041.61
2018-07-08T20:46:32.814Z,101039.55
2018-07-08T20:49:03.527Z,101043.19
2018-07-08T20:51:34.210Z,101045.91
2018-07-08T20:54:04.931Z,101046.66
2018-07-08T20:56:36.272Z,101046.52
2018-07-08T20:59:10.027Z,101046.06
2018-07-08T21:01:40.854Z,101057.52
2018-07-08T21:04:11.660Z,101062.53
2018-07-08T21:06:42.377Z,101062.53
2018-07-08T21:09:13.991Z,101056.80
2018-07-08T21:11:44.669Z,101054.59
2018-07-08T21:14:15.369Z,101060.33
2018-07-08T21:16:45.794Z,101064.00
2018-07-08T21:19:16.365Z,101065.23
2018-07-08T21:21:47.318Z,101066.52
2018-07-08T21:24:18.057Z,101068.84
2018-07-08T21:26:49.076Z,101067.13
2018-07-08T21:29:19.856Z,101072.98
2018-07-08T21:31:50.714Z,101072.12
2018-07-08T21:34:21.412Z,101072.86
2018-07-08T21:36:52.219Z,101072.36
2018-07-08T21:39:22.957Z,101074.53
2018-07-08T21:41:53.614Z,101072.59
2018-07-08T21:44:24.302Z,101072.09
2018-07-08T21:46:54.984Z,101068.28
2018-07-08T21:49:25.662Z,101074.39
2018-07-08T21:51:56.348Z,101071.06
2018-07-08T21:54:27.032Z,101074.48
2018-07-08T21:56:57.767Z,101073.11
2018-07-08T21:59:28.531Z,101072.50
2018-07-08T22:02:02.480Z,101072.56
2018-07-08T22:04:33.223Z,101071.34
2018-07-08T22:07:08.980Z,101077.31
2018-07-08T22:09:39.693Z,101080.20
2018-07-08T22:12:10.411Z,101076.92
2018-07-08T22:14:41.124Z,101080.08
2018-07-08T22:17:11.793Z,101082.97
2018-07-08T22:19:42.613Z,101087.68
2018-07-08T22:22:13.319Z,101087.41
2018-07-08T22:24:44.053Z,101082.27
2018-07-08T22:27:14.765Z,101080.92
2018-07-08T22:29:45.544Z,101077.12
2018-07-08T22:32:16.306Z,101076.50
2018-07-08T22:34:47.178Z,101075.59
2018-07-08T22:37:17.843Z,101079.04
2018-07-08T22:39:48.927Z,101081.33
2018-07-08T22:42:19.585Z,101084.96
2018-07-08T22:44:50.435Z,101081.66
2018-07-08T22:47:21.087Z,101083.80
2018-07-08T22:49:51.831Z,101082.08
2018-07-08T22:52:22.509Z,101080.72
2018-07-08T22:54:53.307Z,101079.45
2018-07-08T22:57:24.023Z,101087.05
2018-07-08T23:00:11.562Z,101091.19
2018-07-08T23:02:47.478Z,101091.66
2018-07-08T23:05:18.343Z,101091.66
2018-07-08T23:07:49.020Z,101095.33
2018-07-08T23:10:19.729Z,101094.58
2018-07-08T23:12:50.444Z,101094.31
2018-07-08T23:15:21.133Z,101096.25
2018-07-08T23:17:51.792Z,101091.08
2018-07-08T23:20:22.483Z,101089.95
2018-07-08T23:22:59.863Z,101095.83
2018-07-08T23:25:30.595Z,101091.88
2018-07-08T23:28:01.370Z,101095.63
2018-07-08T23:30:32.107Z,101098.50
2018-07-08T23:33:02.901Z,101104.36
2018-07-08T23:35:33.595Z,101102.36
2018-07-08T23:38:04.470Z,101093.87
2018-07-08T23:40:35.229Z,101090.23
2018-07-08T23:43:06.173Z,101090.23
2018-07-08T23:45:36.921Z,101091.73
2018-07-08T23:48:07.622Z,101089.53
2018-07-08T23:50:38.427Z,101097.87
2018-07-08T23:53:09.233Z,101090.88
2018-07-08T23:55:40.167Z,101089.48
2018-07-08T23:58:10.816Z,101085.81
